Terminal Aerodrome Forecast
Issued by NWS Missoula, MT

Home | Current Version | Previous Version | Text Only | Print | Product List | Glossary On
Versions: 1 2 3 4 5 6 7 8 9 10 11 12 13 14 15 16 17 18
333
FTUS45 KMSO 252338
TAFGPI
TAF
KGPI 252338Z 2600/2624 17011KT P6SM VCTS FEW110CB
     FM260100 16005KT P6SM VCSH BKN050
     FM260500 16004KT P6SM SCT040 BKN070=

USA.gov is the U.S. government's official web portal to all federal, state and local government web resources and services.